sensor_id;sensor_type;location;lat;lon;timestamp;pressure;altitude;pressure_sealevel;temperature;humidity
51067;BME280;37112;45.892;-123.962;2024-03-17T00:00:06;101513.39;;;20.96;36.01
51067;BME280;37112;45.892;-123.962;2024-03-17T00:02:41;101515.43;;;20.97;35.42
51067;BME280;37112;45.892;-123.962;2024-03-17T00:04:54;101515.08;;;20.95;35.56
51067;BME280;37112;45.892;-123.962;2024-03-17T00:07:06;101517.30;;;20.94;35.48
51067;BME280;37112;45.892;-123.962;2024-03-17T00:09:19;101521.41;;;20.91;35.13
51067;BME280;37112;45.892;-123.962;2024-03-17T00:11:32;101520.45;;;20.86;35.09
51067;BME280;37112;45.892;-123.962;2024-03-17T00:13:45;101519.94;;;20.78;34.86
51067;BME280;37112;45.892;-123.962;2024-03-17T00:15:58;101518.70;;;20.73;34.94
51067;BME280;37112;45.892;-123.962;2024-03-17T00:18:12;101520.71;;;20.67;34.75
51067;BME280;37112;45.892;-123.962;2024-03-17T00:20:25;101517.35;;;20.59;35.10
51067;BME280;37112;45.892;-123.962;2024-03-17T00:22:38;101525.33;;;20.51;34.92
51067;BME280;37112;45.892;-123.962;2024-03-17T00:24:51;101523.73;;;20.37;35.14
51067;BME280;37112;45.892;-123.962;2024-03-17T00:27:03;101525.74;;;20.27;34.67
51067;BME280;37112;45.892;-123.962;2024-03-17T00:29:16;101528.85;;;20.16;34.84
51067;BME280;37112;45.892;-123.962;2024-03-17T00:31:29;101529.39;;;20.06;35.33
51067;BME280;37112;45.892;-123.962;2024-03-17T00:33:42;101532.39;;;19.99;35.74
51067;BME280;37112;45.892;-123.962;2024-03-17T00:35:55;101530.08;;;19.90;35.74
51067;BME280;37112;45.892;-123.962;2024-03-17T00:38:08;101532.04;;;19.82;36.45
51067;BME280;37112;45.892;-123.962;2024-03-17T00:40:22;101533.41;;;19.79;35.70
51067;BME280;37112;45.892;-123.962;2024-03-17T00:42:34;101537.36;;;19.75;35.93
51067;BME280;37112;45.892;-123.962;2024-03-17T00:44:47;101544.69;;;19.70;35.64
51067;BME280;37112;45.892;-123.962;2024-03-17T00:47:00;101545.20;;;19.63;35.80
51067;BME280;37112;45.892;-123.962;2024-03-17T00:49:13;101545.48;;;19.56;35.62
51067;BME280;37112;45.892;-123.962;2024-03-17T00:51:25;101545.44;;;19.50;35.55
51067;BME280;37112;45.892;-123.962;2024-03-17T00:53:37;101549.02;;;19.47;35.47
51067;BME280;37112;45.892;-123.962;2024-03-17T00:55:55;101544.61;;;19.40;35.28
51067;BME280;37112;45.892;-123.962;2024-03-17T00:58:08;101548.41;;;19.34;35.05
51067;BME280;37112;45.892;-123.962;2024-03-17T01:00:22;101548.34;;;19.27;35.27
51067;BME280;37112;45.892;-123.962;2024-03-17T01:02:35;101551.68;;;19.17;35.37
51067;BME280;37112;45.892;-123.962;2024-03-17T01:04:48;101551.79;;;19.06;34.57
51067;BME280;37112;45.892;-123.962;2024-03-17T01:07:00;101556.09;;;18.99;35.11
51067;BME280;37112;45.892;-123.962;2024-03-17T01:09:13;101557.48;;;18.93;35.52
51067;BME280;37112;45.892;-123.962;2024-03-17T01:11:25;101559.89;;;18.86;35.39
51067;BME280;37112;45.892;-123.962;2024-03-17T01:13:38;101563.55;;;18.78;35.36
51067;BME280;37112;45.892;-123.962;2024-03-17T01:15:53;101559.69;;;18.70;35.01
51067;BME280;37112;45.892;-123.962;2024-03-17T01:18:06;101566.55;;;18.68;35.00
51067;BME280;37112;45.892;-123.962;2024-03-17T01:20:20;101573.52;;;18.58;34.56
51067;BME280;37112;45.892;-123.962;2024-03-17T01:22:33;101572.41;;;18.48;34.62
51067;BME280;37112;45.892;-123.962;2024-03-17T01:24:45;101573.40;;;18.35;35.39
51067;BME280;37112;45.892;-123.962;2024-03-17T01:26:58;101578.68;;;18.24;35.63
51067;BME280;37112;45.892;-123.962;2024-03-17T01:29:12;101580.80;;;18.12;36.02
51067;BME280;37112;45.892;-123.962;2024-03-17T01:31:24;101580.98;;;18.03;36.37
51067;BME280;37112;45.892;-123.962;2024-03-17T01:33:37;101582.21;;;17.93;36.51
51067;BME280;37112;45.892;-123.962;2024-03-17T01:35:50;101580.13;;;17.77;36.69
51067;BME280;37112;45.892;-123.962;2024-03-17T01:38:02;101581.34;;;17.65;36.86
51067;BME280;37112;45.892;-123.962;2024-03-17T01:40:16;101582.75;;;17.54;37.24
51067;BME280;37112;45.892;-123.962;2024-03-17T01:42:29;101581.91;;;17.45;36.76
51067;BME280;37112;45.892;-123.962;2024-03-17T01:44:41;101583.98;;;17.37;36.81
51067;BME280;37112;45.892;-123.962;2024-03-17T01:46:55;101587.92;;;17.29;37.60
51067;BME280;37112;45.892;-123.962;2024-03-17T01:49:07;101593.27;;;17.22;38.40
51067;BME280;37112;45.892;-123.962;2024-03-17T01:51:24;101594.23;;;17.15;39.05
51067;BME280;37112;45.892;-123.962;2024-03-17T01:53:37;101595.16;;;17.08;38.76
51067;BME280;37112;45.892;-123.962;2024-03-17T01:55:52;101595.89;;;17.01;38.18
51067;BME280;37112;45.892;-123.962;2024-03-17T01:58:07;101600.05;;;16.92;38.19
51067;BME280;37112;45.892;-123.962;2024-03-17T02:00:21;101600.86;;;16.84;38.87
51067;BME280;37112;45.892;-123.962;2024-03-17T02:02:33;101604.25;;;16.75;39.29
51067;BME280;37112;45.892;-123.962;2024-03-17T02:04:46;101608.00;;;16.64;39.94
51067;BME280;37112;45.892;-123.962;2024-03-17T02:06:58;101610.46;;;16.53;40.01
51067;BME280;37112;45.892;-123.962;2024-03-17T02:09:11;101612.75;;;16.45;40.22
51067;BME280;37112;45.892;-123.962;2024-03-17T02:11:29;101621.95;;;16.37;40.57
51067;BME280;37112;45.892;-123.962;2024-03-17T02:13:42;101628.83;;;16.29;40.69
51067;BME280;37112;45.892;-123.962;2024-03-17T02:15:55;101630.56;;;16.23;41.48
51067;BME280;37112;45.892;-123.962;2024-03-17T02:18:07;101631.86;;;16.13;41.75
51067;BME280;37112;45.892;-123.962;2024-03-17T02:20:21;101640.71;;;16.05;42.11
51067;BME280;37112;45.892;-123.962;2024-03-17T02:22:54;101646.34;;;15.97;42.29
51067;BME280;37112;45.892;-123.962;2024-03-17T02:25:08;101648.90;;;15.89;42.08
51067;BME280;37112;45.892;-123.962;2024-03-17T02:27:20;101649.04;;;15.80;40.92
51067;BME280;37112;45.892;-123.962;2024-03-17T02:29:33;101654.20;;;15.73;40.55
51067;BME280;37112;45.892;-123.962;2024-03-17T02:31:46;101651.48;;;15.69;40.11
51067;BME280;37112;45.892;-123.962;2024-03-17T02:33:59;101653.55;;;15.63;40.43
51067;BME280;37112;45.892;-123.962;2024-03-17T02:36:13;101657.33;;;15.57;40.57
51067;BME280;37112;45.892;-123.962;2024-03-17T02:38:27;101657.39;;;15.52;40.68
51067;BME280;37112;45.892;-123.962;2024-03-17T02:41:08;101660.67;;;15.46;40.61
51067;BME280;37112;45.892;-123.962;2024-03-17T02:43:21;101662.61;;;15.42;40.44
51067;BME280;37112;45.892;-123.962;2024-03-17T02:45:33;101666.48;;;15.37;40.37
51067;BME280;37112;45.892;-123.962;2024-03-17T02:47:47;101666.98;;;15.33;40.26
51067;BME280;37112;45.892;-123.962;2024-03-17T02:50:00;101663.40;;;15.28;40.20
51067;BME280;37112;45.892;-123.962;2024-03-17T02:52:14;101662.52;;;15.23;40.02
51067;BME280;37112;45.892;-123.962;2024-03-17T02:54:27;101665.49;;;15.19;40.25
51067;BME280;37112;45.892;-123.962;2024-03-17T02:56:44;101670.34;;;15.14;40.42
51067;BME280;37112;45.892;-123.962;2024-03-17T02:58:57;101670.15;;;15.09;40.19
51067;BME280;37112;45.892;-123.962;2024-03-17T03:01:10;101671.56;;;15.04;40.40
51067;BME280;37112;45.892;-123.962;2024-03-17T03:03:22;101672.79;;;14.99;40.31
51067;BME280;37112;45.892;-123.962;2024-03-17T03:05:35;101675.01;;;14.93;40.00
51067;BME280;37112;45.892;-123.962;2024-03-17T03:07:49;101676.03;;;14.86;40.03
51067;BME280;37112;45.892;-123.962;2024-03-17T03:10:02;101678.90;;;14.81;39.86
51067;BME280;37112;45.892;-123.962;2024-03-17T03:12:16;101680.14;;;14.73;39.98
51067;BME280;37112;45.892;-123.962;2024-03-17T03:14:28;101683.62;;;14.65;40.08
51067;BME280;37112;45.892;-123.962;2024-03-17T03:16:42;101682.34;;;14.55;40.35
51067;BME280;37112;45.892;-123.962;2024-03-17T03:18:54;101684.91;;;14.46;40.69
51067;BME280;37112;45.892;-123.962;2024-03-17T03:21:07;101688.61;;;14.36;41.06
51067;BME280;37112;45.892;-123.962;2024-03-17T03:23:19;101688.08;;;14.25;41.43
51067;BME280;37112;45.892;-123.962;2024-03-17T03:25:33;101690.54;;;14.15;41.88
51067;BME280;37112;45.892;-123.962;2024-03-17T03:27:45;101693.08;;;14.07;42.30
51067;BME280;37112;45.892;-123.962;2024-03-17T03:29:55;101690.52;;;13.97;42.80
51067;BME280;37112;45.892;-123.962;2024-03-17T03:32:10;101694.37;;;13.87;42.96
51067;BME280;37112;45.892;-123.962;2024-03-17T03:34:22;101699.34;;;13.80;43.30
51067;BME280;37112;45.892;-123.962;2024-03-17T03:36:37;101700.73;;;13.72;43.44
51067;BME280;37112;45.892;-123.962;2024-03-17T03:38:49;101700.69;;;13.65;43.79
51067;BME280;37112;45.892;-123.962;2024-03-17T03:41:08;101702.95;;;13.57;43.91
51067;BME280;37112;45.892;-123.962;2024-03-17T03:43:22;101709.58;;;13.51;44.14
51067;BME280;37112;45.892;-123.962;2024-03-17T03:45:34;101709.30;;;13.45;44.42
51067;BME280;37112;45.892;-123.962;2024-03-17T03:47:47;101715.21;;;13.38;44.61
51067;BME280;37112;45.892;-123.962;2024-03-17T03:49:59;101713.71;;;13.34;44.81
51067;BME280;37112;45.892;-123.962;2024-03-17T03:52:12;101714.04;;;13.29;44.93
51067;BME280;37112;45.892;-123.962;2024-03-17T03:54:25;101716.13;;;13.21;45.05
51067;BME280;37112;45.892;-123.962;2024-03-17T03:56:38;101717.27;;;13.14;45.21
51067;BME280;37112;45.892;-123.962;2024-03-17T03:58:51;101719.23;;;13.08;45.16
51067;BME280;37112;45.892;-123.962;2024-03-17T04:01:06;101722.52;;;13.04;45.29
51067;BME280;37112;45.892;-123.962;2024-03-17T04:03:19;101721.04;;;12.99;45.54
51067;BME280;37112;45.892;-123.962;2024-03-17T04:05:32;101725.09;;;12.94;45.63
51067;BME280;37112;45.892;-123.962;2024-03-17T04:07:45;101727.44;;;12.88;45.82
51067;BME280;37112;45.892;-123.962;2024-03-17T04:09:58;101724.36;;;12.82;45.93
51067;BME280;37112;45.892;-123.962;2024-03-17T04:12:08;101728.34;;;12.76;46.11
51067;BME280;37112;45.892;-123.962;2024-03-17T04:14:20;101729.42;;;12.70;46.35
51067;BME280;37112;45.892;-123.962;2024-03-17T04:16:33;101735.02;;;12.66;46.64
51067;BME280;37112;45.892;-123.962;2024-03-17T04:18:45;101733.98;;;12.59;46.70
51067;BME280;37112;45.892;-123.962;2024-03-17T04:21:00;101733.90;;;12.51;46.84
51067;BME280;37112;45.892;-123.962;2024-03-17T04:23:13;101732.60;;;12.47;46.87
51067;BME280;37112;45.892;-123.962;2024-03-17T04:25:23;101732.85;;;12.42;46.81
51067;BME280;37112;45.892;-123.962;2024-03-17T04:27:36;101739.70;;;12.38;46.95
51067;BME280;37112;45.892;-123.962;2024-03-17T04:29:48;101743.57;;;12.35;46.86
51067;BME280;37112;45.892;-123.962;2024-03-17T04:32:01;101746.23;;;12.33;47.19
51067;BME280;37112;45.892;-123.962;2024-03-17T04:34:15;101746.66;;;12.29;47.28
51067;BME280;37112;45.892;-123.962;2024-03-17T04:36:27;101750.66;;;12.24;47.41
51067;BME280;37112;45.892;-123.962;2024-03-17T04:38:40;101757.72;;;12.19;47.70
51067;BME280;37112;45.892;-123.962;2024-03-17T04:40:52;101763.05;;;12.13;47.71
51067;BME280;37112;45.892;-123.962;2024-03-17T04:43:14;101762.02;;;12.06;47.96
51067;BME280;37112;45.892;-123.962;2024-03-17T04:45:23;101763.48;;;11.99;48.00
51067;BME280;37112;45.892;-123.962;2024-03-17T04:47:36;101768.94;;;11.91;48.47
51067;BME280;37112;45.892;-123.962;2024-03-17T04:49:49;101769.73;;;11.83;48.51
51067;BME280;37112;45.892;-123.962;2024-03-17T04:52:03;101776.39;;;11.75;48.84
51067;BME280;37112;45.892;-123.962;2024-03-17T04:54:15;101778.95;;;11.67;48.86
51067;BME280;37112;45.892;-123.962;2024-03-17T04:56:25;101781.41;;;11.61;49.08
51067;BME280;37112;45.892;-123.962;2024-03-17T04:58:39;101782.19;;;11.57;49.27
51067;BME280;37112;45.892;-123.962;2024-03-17T05:00:51;101785.83;;;11.52;49.41
51067;BME280;37112;45.892;-123.962;2024-03-17T05:03:04;101788.87;;;11.45;49.67
51067;BME280;37112;45.892;-123.962;2024-03-17T05:05:17;101794.84;;;11.37;49.77
51067;BME280;37112;45.892;-123.962;2024-03-17T05:07:30;101794.50;;;11.30;49.83
51067;BME280;37112;45.892;-123.962;2024-03-17T05:09:42;101798.56;;;11.24;49.95
51067;BME280;37112;45.892;-123.962;2024-03-17T05:11:55;101801.02;;;11.18;50.13
51067;BME280;37112;45.892;-123.962;2024-03-17T05:14:08;101802.37;;;11.12;50.23
51067;BME280;37112;45.892;-123.962;2024-03-17T05:16:18;101801.55;;;11.08;50.37
51067;BME280;37112;45.892;-123.962;2024-03-17T05:18:33;101800.10;;;11.01;50.47
51067;BME280;37112;45.892;-123.962;2024-03-17T05:20:45;101799.15;;;10.96;50.69
51067;BME280;37112;45.892;-123.962;2024-03-17T05:22:59;101804.23;;;10.90;50.86
51067;BME280;37112;45.892;-123.962;2024-03-17T05:25:11;101804.64;;;10.85;50.99
51067;BME280;37112;45.892;-123.962;2024-03-17T05:27:24;101805.73;;;10.81;51.03
51067;BME280;37112;45.892;-123.962;2024-03-17T05:29:37;101809.98;;;10.78;51.20
51067;BME280;37112;45.892;-123.962;2024-03-17T05:31:50;101801.46;;;10.75;51.40
51067;BME280;37112;45.892;-123.962;2024-03-17T05:34:04;101803.61;;;10.71;51.45
51067;BME280;37112;45.892;-123.962;2024-03-17T05:36:17;101802.82;;;10.66;51.70
51067;BME280;37112;45.892;-123.962;2024-03-17T05:38:31;101808.81;;;10.63;51.73
51067;BME280;37112;45.892;-123.962;2024-03-17T05:40:44;101811.16;;;10.59;51.72
51067;BME280;37112;45.892;-123.962;2024-03-17T05:42:57;101809.89;;;10.55;51.65
51067;BME280;37112;45.892;-123.962;2024-03-17T05:45:11;101811.07;;;10.53;51.91
51067;BME280;37112;45.892;-123.962;2024-03-17T05:47:24;101807.92;;;10.49;52.06
51067;BME280;37112;45.892;-123.962;2024-03-17T05:49:36;101810.51;;;10.43;52.26
51067;BME280;37112;45.892;-123.962;2024-03-17T05:51:49;101812.34;;;10.39;52.24
51067;BME280;37112;45.892;-123.962;2024-03-17T05:53:58;101813.73;;;10.36;52.23
51067;BME280;37112;45.892;-123.962;2024-03-17T05:56:11;101814.60;;;10.32;52.32
51067;BME280;37112;45.892;-123.962;2024-03-17T05:58:23;101817.39;;;10.29;52.31
51067;BME280;37112;45.892;-123.962;2024-03-17T06:00:37;101815.92;;;10.27;52.41
51067;BME280;37112;45.892;-123.962;2024-03-17T06:02:49;101817.41;;;10.25;52.40
51067;BME280;37112;45.892;-123.962;2024-03-17T06:04:59;101818.61;;;10.23;52.69
51067;BME280;37112;45.892;-123.962;2024-03-17T06:07:14;101821.40;;;10.19;52.63
51067;BME280;37112;45.892;-123.962;2024-03-17T06:09:26;101819.73;;;10.17;52.67
51067;BME280;37112;45.892;-123.962;2024-03-17T06:11:36;101820.67;;;10.16;52.54
51067;BME280;37112;45.892;-123.962;2024-03-17T06:13:49;101817.91;;;10.15;52.69
51067;BME280;37112;45.892;-123.962;2024-03-17T06:15:59;101822.22;;;10.14;52.66
51067;BME280;37112;45.892;-123.962;2024-03-17T06:18:14;101821.77;;;10.12;52.69
51067;BME280;37112;45.892;-123.962;2024-03-17T06:20:28;101823.05;;;10.11;52.79
51067;BME280;37112;45.892;-123.962;2024-03-17T06:22:40;101825.27;;;10.09;52.71
51067;BME280;37112;45.892;-123.962;2024-03-17T06:24:50;101827.11;;;10.08;52.71
51067;BME280;37112;45.892;-123.962;2024-03-17T06:27:03;101825.14;;;10.05;52.98
51067;BME280;37112;45.892;-123.962;2024-03-17T06:29:15;101822.84;;;10.00;53.17
51067;BME280;37112;45.892;-123.962;2024-03-17T06:31:29;101819.46;;;9.97;53.20
51067;BME280;37112;45.892;-123.962;2024-03-17T06:33:42;101822.11;;;9.94;53.34
51067;BME280;37112;45.892;-123.962;2024-03-17T06:35:52;101823.16;;;9.91;53.43
51067;BME280;37112;45.892;-123.962;2024-03-17T06:38:05;101825.05;;;9.88;53.34
51067;BME280;37112;45.892;-123.962;2024-03-17T06:40:20;101825.19;;;9.85;53.55
51067;BME280;37112;45.892;-123.962;2024-03-17T06:42:33;101823.44;;;9.81;53.67
51067;BME280;37112;45.892;-123.962;2024-03-17T06:44:46;101826.63;;;9.76;53.67
51067;BME280;37112;45.892;-123.962;2024-03-17T06:46:55;101828.04;;;9.73;54.09
51067;BME280;37112;45.892;-123.962;2024-03-17T06:49:10;101832.57;;;9.67;54.07
51067;BME280;37112;45.892;-123.962;2024-03-17T06:51:19;101826.07;;;9.62;54.27
51067;BME280;37112;45.892;-123.962;2024-03-17T06:53:32;101822.54;;;9.58;54.41
51067;BME280;37112;45.892;-123.962;2024-03-17T06:55:44;101822.91;;;9.54;54.65
51067;BME280;37112;45.892;-123.962;2024-03-17T06:58:04;101820.80;;;9.50;54.75
51067;BME280;37112;45.892;-123.962;2024-03-17T07:00:18;101822.11;;;9.47;54.92
51067;BME280;37112;45.892;-123.962;2024-03-17T07:02:35;101820.77;;;9.46;54.92
51067;BME280;37112;45.892;-123.962;2024-03-17T07:04:48;101820.48;;;9.44;55.02
51067;BME280;37112;45.892;-123.962;2024-03-17T07:07:01;101821.77;;;9.43;55.07
51067;BME280;37112;45.892;-123.962;2024-03-17T07:09:13;101822.88;;;9.43;55.07
51067;BME280;37112;45.892;-123.962;2024-03-17T07:11:23;101826.45;;;9.42;55.32
51067;BME280;37112;45.892;-123.962;2024-03-17T07:13:37;101828.72;;;9.39;55.38
51067;BME280;37112;45.892;-123.962;2024-03-17T07:15:52;101832.27;;;9.35;55.43
51067;BME280;37112;45.892;-123.962;2024-03-17T07:18:04;101836.75;;;9.33;55.48
51067;BME280;37112;45.892;-123.962;2024-03-17T07:20:17;101838.98;;;9.31;55.54
51067;BME280;37112;45.892;-123.962;2024-03-17T07:22:30;101840.13;;;9.30;55.58
51067;BME280;37112;45.892;-123.962;2024-03-17T07:24:43;101840.91;;;9.28;55.47
51067;BME280;37112;45.892;-123.962;2024-03-17T07:26:53;101842.62;;;9.25;55.65
51067;BME280;37112;45.892;-123.962;2024-03-17T07:29:05;101843.71;;;9.20;55.81
51067;BME280;37112;45.892;-123.962;2024-03-17T07:31:18;101843.33;;;9.17;55.97
51067;BME280;37112;45.892;-123.962;2024-03-17T07:33:31;101847.52;;;9.14;55.99
51067;BME280;37112;45.892;-123.962;2024-03-17T07:35:52;101849.64;;;9.11;56.29
51067;BME280;37112;45.892;-123.962;2024-03-17T07:38:05;101847.89;;;9.06;56.24
51067;BME280;37112;45.892;-123.962;2024-03-17T07:40:17;101853.32;;;8.99;56.33
51067;BME280;37112;45.892;-123.962;2024-03-17T07:42:31;101864.33;;;8.94;56.42
51067;BME280;37112;45.892;-123.962;2024-03-17T07:44:46;101872.19;;;8.92;56.58
51067;BME280;37112;45.892;-123.962;2024-03-17T07:46:59;101874.41;;;8.90;56.59
51067;BME280;37112;45.892;-123.962;2024-03-17T07:49:11;101875.17;;;8.89;56.61
51067;BME280;37112;45.892;-123.962;2024-03-17T07:51:24;101879.52;;;8.87;56.56
51067;BME280;37112;45.892;-123.962;2024-03-17T07:53:37;101878.04;;;8.84;56.54
51067;BME280;37112;45.892;-123.962;2024-03-17T07:55:59;101879.45;;;8.80;56.49
51067;BME280;37112;45.892;-123.962;2024-03-17T07:58:11;101881.53;;;8.77;56.63
51067;BME280;37112;45.892;-123.962;2024-03-17T08:00:25;101890.63;;;8.75;56.65
51067;BME280;37112;45.892;-123.962;2024-03-17T08:02:38;101891.83;;;8.73;56.80
51067;BME280;37112;45.892;-123.962;2024-03-17T08:04:51;101887.91;;;8.68;57.07
51067;BME280;37112;45.892;-123.962;2024-03-17T08:07:04;101890.69;;;8.65;57.13
51067;BME280;37112;45.892;-123.962;2024-03-17T08:09:17;101892.58;;;8.62;57.27
51067;BME280;37112;45.892;-123.962;2024-03-17T08:11:29;101892.55;;;8.59;57.61
51067;BME280;37112;45.892;-123.962;2024-03-17T08:13:42;101891.59;;;8.56;57.67
51067;BME280;37112;45.892;-123.962;2024-03-17T08:15:56;101897.41;;;8.52;57.85
51067;BME280;37112;45.892;-123.962;2024-03-17T08:18:09;101899.15;;;8.49;57.89
51067;BME280;37112;45.892;-123.962;2024-03-17T08:20:22;101898.50;;;8.47;57.99
51067;BME280;37112;45.892;-123.962;2024-03-17T08:22:35;101903.45;;;8.47;58.18
51067;BME280;37112;45.892;-123.962;2024-03-17T08:24:47;101899.86;;;8.49;58.47
51067;BME280;37112;45.892;-123.962;2024-03-17T08:26:57;101896.77;;;8.51;58.46
51067;BME280;37112;45.892;-123.962;2024-03-17T08:29:09;101899.94;;;8.51;58.62
51067;BME280;37112;45.892;-123.962;2024-03-17T08:31:22;101905.29;;;8.51;58.62
51067;BME280;37112;45.892;-123.962;2024-03-17T08:33:35;101904.52;;;8.51;58.83
51067;BME280;37112;45.892;-123.962;2024-03-17T08:35:57;101901.17;;;8.51;58.89
51067;BME280;37112;45.892;-123.962;2024-03-17T08:38:10;101904.70;;;8.52;58.84
51067;BME280;37112;45.892;-123.962;2024-03-17T08:40:25;101914.97;;;8.52;58.84
51067;BME280;37112;45.892;-123.962;2024-03-17T08:42:38;101913.45;;;8.50;58.77
51067;BME280;37112;45.892;-123.962;2024-03-17T08:44:47;101917.05;;;8.48;58.73
51067;BME280;37112;45.892;-123.962;2024-03-17T08:47:00;101920.50;;;8.46;58.71
51067;BME280;37112;45.892;-123.962;2024-03-17T08:49:10;101924.89;;;8.43;58.84
51067;BME280;37112;45.892;-123.962;2024-03-17T08:51:22;101930.14;;;8.39;58.93
51067;BME280;37112;45.892;-123.962;2024-03-17T08:53:35;101933.80;;;8.36;58.94
51067;BME280;37112;45.892;-123.962;2024-03-17T08:55:48;101936.89;;;8.34;59.22
51067;BME280;37112;45.892;-123.962;2024-03-17T08:58:01;101943.11;;;8.33;59.22
51067;BME280;37112;45.892;-123.962;2024-03-17T09:00:12;101957.80;;;8.32;59.34
51067;BME280;37112;45.892;-123.962;2024-03-17T09:02:25;101974.52;;;8.30;59.51
51067;BME280;37112;45.892;-123.962;2024-03-17T09:04:38;101984.81;;;8.29;59.46
51067;BME280;37112;45.892;-123.962;2024-03-17T09:06:51;101985.64;;;8.27;59.39
51067;BME280;37112;45.892;-123.962;2024-03-17T09:09:06;101993.73;;;8.23;59.48
51067;BME280;37112;45.892;-123.962;2024-03-17T09:11:19;102006.05;;;8.20;59.45
51067;BME280;37112;45.892;-123.962;2024-03-17T09:13:35;102013.36;;;8.19;59.58
51067;BME280;37112;45.892;-123.962;2024-03-17T09:15:55;102012.89;;;8.17;59.65
51067;BME280;37112;45.892;-123.962;2024-03-17T09:18:10;102017.72;;;8.15;59.92
51067;BME280;37112;45.892;-123.962;2024-03-17T09:20:22;102024.61;;;8.16;60.30
51067;BME280;37112;45.892;-123.962;2024-03-17T09:22:35;102030.39;;;8.18;60.55
51067;BME280;37112;45.892;-123.962;2024-03-17T09:24:44;102031.61;;;8.18;60.58
51067;BME280;37112;45.892;-123.962;2024-03-17T09:26:57;102041.04;;;8.16;60.54
51067;BME280;37112;45.892;-123.962;2024-03-17T09:29:07;102050.52;;;8.14;60.51
51067;BME280;37112;45.892;-123.962;2024-03-17T09:31:19;102053.02;;;8.08;60.41
51067;BME280;37112;45.892;-123.962;2024-03-17T09:33:51;102057.31;;;8.01;60.54
51067;BME280;37112;45.892;-123.962;2024-03-17T09:36:25;102063.17;;;7.96;60.74
51067;BME280;37112;45.892;-123.962;2024-03-17T09:38:49;102073.88;;;7.93;60.74
51067;BME280;37112;45.892;-123.962;2024-03-17T09:41:21;102077.23;;;7.89;60.79
51067;BME280;37112;45.892;-123.962;2024-03-17T09:43:49;102080.78;;;7.83;60.70
51067;BME280;37112;45.892;-123.962;2024-03-17T09:46:17;102079.73;;;7.77;60.75
51067;BME280;37112;45.892;-123.962;2024-03-17T09:48:51;102085.41;;;7.72;60.90
51067;BME280;37112;45.892;-123.962;2024-03-17T09:51:21;102084.68;;;7.67;61.10
51067;BME280;37112;45.892;-123.962;2024-03-17T09:53:54;102088.34;;;7.64;61.13
51067;BME280;37112;45.892;-123.962;2024-03-17T09:56:23;102093.39;;;7.61;61.25
51067;BME280;37112;45.892;-123.962;2024-03-17T09:58:42;102098.13;;;7.57;61.43
51067;BME280;37112;45.892;-123.962;2024-03-17T10:01:06;102101.11;;;7.51;61.53
51067;BME280;37112;45.892;-123.962;2024-03-17T10:03:46;102101.25;;;7.47;61.71
51067;BME280;37112;45.892;-123.962;2024-03-17T10:06:23;102098.36;;;7.43;61.86
51067;BME280;37112;45.892;-123.962;2024-03-17T10:08:51;102096.39;;;7.39;62.02
51067;BME280;37112;45.892;-123.962;2024-03-17T10:11:14;102095.59;;;7.37;62.12
51067;BME280;37112;45.892;-123.962;2024-03-17T10:13:59;102092.42;;;7.36;62.38
51067;BME280;37112;45.892;-123.962;2024-03-17T10:16:35;102090.55;;;7.34;62.53
51067;BME280;37112;45.892;-123.962;2024-03-17T10:19:12;102090.96;;;7.32;62.50
51067;BME280;37112;45.892;-123.962;2024-03-17T10:21:46;102096.10;;;7.31;62.63
51067;BME280;37112;45.892;-123.962;2024-03-17T10:24:21;102095.59;;;7.32;62.75
51067;BME280;37112;45.892;-123.962;2024-03-17T10:26:48;102097.35;;;7.31;62.88
51067;BME280;37112;45.892;-123.962;2024-03-17T10:29:30;102100.70;;;7.31;62.82
51067;BME280;37112;45.892;-123.962;2024-03-17T10:32:13;102105.86;;;7.30;62.90
51067;BME280;37112;45.892;-123.962;2024-03-17T10:34:46;102107.48;;;7.29;63.08
51067;BME280;37112;45.892;-123.962;2024-03-17T10:37:14;102108.19;;;7.29;63.16
51067;BME280;37112;45.892;-123.962;2024-03-17T10:39:42;102110.52;;;7.28;63.09
51067;BME280;37112;45.892;-123.962;2024-03-17T10:42:20;102112.20;;;7.26;63.02
51067;BME280;37112;45.892;-123.962;2024-03-17T10:44:55;102113.69;;;7.22;63.25
51067;BME280;37112;45.892;-123.962;2024-03-17T10:47:28;102115.55;;;7.20;63.32
51067;BME280;37112;45.892;-123.962;2024-03-17T10:50:02;102117.76;;;7.17;63.48
51067;BME280;37112;45.892;-123.962;2024-03-17T10:52:37;102123.20;;;7.12;63.55
51067;BME280;37112;45.892;-123.962;2024-03-17T10:55:25;102123.69;;;7.08;63.64
51067;BME280;37112;45.892;-123.962;2024-03-17T10:58:00;102123.09;;;7.05;63.74
51067;BME280;37112;45.892;-123.962;2024-03-17T11:00:37;102130.23;;;7.03;63.87
51067;BME280;37112;45.892;-123.962;2024-03-17T11:03:12;102132.05;;;7.00;63.99
51067;BME280;37112;45.892;-123.962;2024-03-17T11:05:47;102136.23;;;6.96;64.06
51067;BME280;37112;45.892;-123.962;2024-03-17T11:08:22;102137.19;;;6.94;64.30
51067;BME280;37112;45.892;-123.962;2024-03-17T11:10:56;102138.80;;;6.93;64.33
51067;BME280;37112;45.892;-123.962;2024-03-17T11:13:29;102139.16;;;6.93;64.46
51067;BME280;37112;45.892;-123.962;2024-03-17T11:15:54;102137.73;;;6.94;64.63
51067;BME280;37112;45.892;-123.962;2024-03-17T11:18:36;102140.45;;;6.96;64.76
51067;BME280;37112;45.892;-123.962;2024-03-17T11:21:02;102138.95;;;6.99;65.08
51067;BME280;37112;45.892;-123.962;2024-03-17T11:23:31;102142.21;;;7.04;65.09
51067;BME280;37112;45.892;-123.962;2024-03-17T11:25:54;102141.27;;;7.05;65.24
51067;BME280;37112;45.892;-123.962;2024-03-17T11:28:50;102145.95;;;7.08;65.19